createdAt,value
2022-09-28T00:01:19.218Z,13.39
2022-09-28T00:06:29.084Z,13.33
2022-09-28T00:11:33.624Z,13.32
2022-09-28T00:16:43.836Z,13.39
2022-09-28T00:21:48.242Z,13.45
2022-09-28T00:26:58.170Z,13.51
2022-09-28T00:32:05.077Z,13.52
2022-09-28T00:37:09.682Z,13.53
2022-09-28T00:42:23.705Z,13.49
2022-09-28T00:47:31.623Z,13.42
2022-09-28T00:52:50.287Z,13.40
2022-09-28T00:58:00.162Z,13.41
2022-09-28T01:03:04.596Z,13.46
2022-09-28T01:08:09.341Z,13.45
2022-09-28T01:13:13.984Z,13.36
2022-09-28T01:18:41.591Z,13.27
2022-09-28T01:24:42.422Z,13.23
2022-09-28T01:30:12.775Z,13.12
2022-09-28T01:35:44.413Z,12.95
2022-09-28T01:40:49.549Z,12.87
2022-09-28T01:46:15.236Z,12.84
2022-09-28T01:51:35.828Z,12.77
2022-09-28T01:56:49.096Z,12.74
2022-09-28T02:01:56.648Z,12.62
2022-09-28T02:07:29.420Z,12.58
2022-09-28T02:12:42.902Z,12.45
2022-09-28T02:17:46.895Z,12.38
2022-09-28T02:22:56.120Z,12.33
2022-09-28T02:28:04.508Z,12.19
2022-09-28T02:33:29.591Z,12.02
2022-09-28T02:38:33.613Z,11.94
2022-09-28T02:44:53.523Z,11.84
2022-09-28T02:50:34.826Z,11.73
2022-09-28T02:55:50.225Z,11.67
2022-09-28T03:01:12.717Z,11.67
2022-09-28T03:06:45.483Z,11.69
2022-09-28T03:12:05.283Z,11.70
2022-09-28T03:17:08.602Z,11.68
2022-09-28T03:22:11.917Z,11.57
2022-09-28T03:27:15.318Z,11.52
2022-09-28T03:32:18.636Z,11.51
2022-09-28T03:37:22.352Z,11.55
2022-09-28T03:42:25.823Z,11.65
2022-09-28T03:47:29.390Z,11.71
2022-09-28T03:52:33.210Z,11.79
2022-09-28T03:57:36.826Z,11.79
2022-09-28T04:02:40.256Z,11.72
2022-09-28T04:07:43.655Z,11.69
2022-09-28T04:12:47.074Z,11.65
2022-09-28T04:17:51.116Z,11.62
2022-09-28T04:22:54.411Z,11.62
2022-09-28T04:28:16.157Z,11.64
2022-09-28T04:33:19.580Z,11.68
2022-09-28T04:38:41.510Z,11.73
2022-09-28T04:43:49.337Z,11.84
2022-09-28T04:48:52.746Z,11.94
2022-09-28T04:53:56.362Z,11.83
2022-09-28T04:58:59.693Z,11.71
2022-09-28T05:04:03.621Z,11.75
2022-09-28T05:09:07.842Z,11.84
2022-09-28T05:14:12.473Z,11.83
2022-09-28T05:19:15.920Z,11.91
2022-09-28T05:24:19.420Z,11.91
2022-09-28T05:29:22.822Z,11.86
2022-09-28T05:34:26.135Z,11.89
2022-09-28T05:39:29.471Z,11.98
2022-09-28T05:44:32.853Z,11.98
2022-09-28T05:49:36.202Z,11.95
2022-09-28T05:54:39.665Z,11.90
2022-09-28T05:59:42.994Z,11.87
2022-09-28T06:04:48.560Z,11.92
2022-09-28T06:09:51.868Z,12.01
2022-09-28T06:14:55.591Z,12.02
2022-09-28T06:19:59.494Z,12.03
2022-09-28T06:25:02.934Z,12.04
2022-09-28T06:30:07.496Z,12.07
2022-09-28T06:35:10.883Z,12.01
2022-09-28T06:40:14.848Z,11.96
2022-09-28T06:45:20.373Z,11.96
2022-09-28T06:50:37.613Z,11.95
2022-09-28T06:55:50.654Z,11.91
2022-09-28T07:01:00.426Z,11.95
2022-09-28T07:06:05.158Z,11.97
2022-09-28T07:11:09.038Z,11.96
2022-09-28T07:16:13.191Z,11.97
2022-09-28T07:21:27.272Z,12.00
2022-09-28T07:26:33.561Z,11.95
2022-09-28T07:31:36.871Z,11.97
2022-09-28T07:36:40.118Z,11.99
2022-09-28T07:41:44.478Z,12.02
2022-09-28T07:46:47.740Z,12.09
2022-09-28T07:51:51.039Z,12.06
2022-09-28T07:56:54.556Z,12.02
2022-09-28T08:01:59.226Z,12.04
2022-09-28T08:07:03.432Z,12.03
2022-09-28T08:12:07.689Z,11.94
2022-09-28T08:17:11.158Z,11.91
2022-09-28T08:22:15.746Z,11.90
2022-09-28T08:27:19.060Z,11.91
2022-09-28T08:32:22.447Z,11.97
2022-09-28T08:37:25.857Z,11.98
2022-09-28T08:42:42.992Z,12.16
2022-09-28T08:48:15.468Z,12.37
2022-09-28T08:53:35.535Z,12.54
2022-09-28T08:58:44.667Z,12.58
2022-09-28T09:03:49.875Z,12.56
2022-09-28T09:09:20.790Z,12.67
2022-09-28T09:14:44.619Z,12.78
2022-09-28T09:20:01.995Z,12.94
2022-09-28T09:25:21.989Z,13.09
2022-09-28T09:30:29.944Z,13.18
2022-09-28T09:36:16.229Z,13.21
2022-09-28T09:42:02.145Z,13.38
2022-09-28T09:47:26.341Z,13.51
2022-09-28T09:52:57.521Z,13.78
2022-09-28T09:58:13.317Z,14.27
2022-09-28T10:03:31.646Z,14.25
2022-09-28T10:08:43.590Z,14.02
2022-09-28T10:13:50.075Z,13.86
2022-09-28T10:18:53.498Z,13.84
2022-09-28T10:24:04.384Z,13.97
2022-09-28T10:29:23.324Z,14.30
2022-09-28T10:34:31.155Z,14.45
2022-09-28T10:39:49.754Z,14.34
2022-09-28T10:45:02.684Z,14.09
2022-09-28T10:50:28.825Z,13.98
2022-09-28T10:55:33.791Z,13.99
2022-09-28T11:00:43.339Z,14.16
2022-09-28T11:06:07.587Z,14.31
2022-09-28T11:11:15.043Z,14.42
2022-09-28T11:16:26.435Z,14.10
2022-09-28T11:21:42.145Z,13.80
2022-09-28T11:26:49.968Z,13.63
2022-09-28T11:31:59.589Z,13.54
2022-09-28T11:37:32.019Z,13.52
2022-09-28T11:42:56.540Z,13.66
2022-09-28T11:48:06.359Z,14.01
2022-09-28T11:53:25.169Z,14.56
2022-09-28T11:58:53.565Z,14.86
2022-09-28T12:04:06.976Z,14.90
2022-09-28T12:09:36.116Z,14.96
2022-09-28T12:14:41.401Z,15.03
2022-09-28T12:20:37.026Z,14.84
2022-09-28T12:26:15.369Z,14.50
2022-09-28T12:31:30.861Z,14.16
2022-09-28T12:36:56.906Z,14.03
2022-09-28T12:42:39.401Z,14.03
2022-09-28T12:48:09.188Z,14.13
2022-09-28T12:53:21.178Z,14.26
2022-09-28T12:58:42.408Z,14.29
2022-09-28T13:04:28.013Z,14.35
2022-09-28T13:10:26.143Z,14.39
2022-09-28T13:16:09.205Z,14.40
2022-09-28T13:21:31.415Z,14.46
2022-09-28T13:26:45.174Z,14.51
2022-09-28T13:31:57.900Z,14.60
2022-09-28T13:37:22.104Z,14.57
2022-09-28T13:42:52.237Z,14.58
2022-09-28T13:48:05.700Z,14.64
2022-09-28T13:53:59.277Z,14.81
2022-09-28T13:59:28.237Z,14.84
2022-09-28T14:05:03.876Z,14.65
2022-09-28T14:10:57.246Z,14.55
2022-09-28T14:16:18.749Z,14.36
2022-09-28T14:21:43.599Z,14.20
2022-09-28T14:27:17.627Z,14.11
2022-09-28T14:32:25.005Z,14.14
2022-09-28T14:37:52.624Z,14.32
2022-09-28T14:43:25.213Z,14.46
2022-09-28T14:48:55.470Z,14.34
2022-09-28T14:54:26.318Z,14.06
2022-09-28T14:59:36.389Z,13.84
2022-09-28T15:04:52.800Z,13.64
2022-09-28T15:09:58.686Z,13.64
2022-09-28T15:15:08.746Z,13.68
2022-09-28T15:20:35.709Z,13.73
2022-09-28T15:25:39.121Z,13.80
2022-09-28T15:30:42.690Z,13.81
2022-09-28T15:35:57.848Z,13.79
2022-09-28T15:41:07.493Z,13.67
2022-09-28T15:46:19.160Z,13.45
2022-09-28T15:51:25.614Z,13.21
2022-09-28T15:56:30.672Z,13.00
2022-09-28T16:01:44.659Z,12.80
2022-09-28T16:07:12.692Z,12.62
2022-09-28T16:12:16.068Z,12.48
2022-09-28T16:17:33.037Z,12.33
2022-09-28T16:22:38.465Z,12.19
2022-09-28T16:27:44.880Z,12.04
2022-09-28T16:33:02.321Z,12.03
2022-09-28T16:38:18.331Z,12.08
2022-09-28T16:43:29.491Z,12.18
2022-09-28T16:48:36.843Z,12.24
2022-09-28T16:53:58.893Z,12.26
2022-09-28T16:59:03.606Z,12.26
2022-09-28T17:04:07.861Z,12.24
2022-09-28T17:09:14.454Z,12.21
2022-09-28T17:14:18.792Z,12.19
2022-09-28T17:19:25.871Z,12.15
2022-09-28T17:24:29.181Z,12.13
2022-09-28T17:29:32.921Z,12.19
2022-09-28T17:34:36.702Z,12.29
2022-09-28T17:39:40.097Z,12.28
2022-09-28T17:44:43.476Z,12.23
2022-09-28T17:49:46.855Z,12.08
2022-09-28T17:54:50.189Z,12.02
2022-09-28T17:59:53.606Z,11.99
2022-09-28T18:04:57.243Z,11.98
2022-09-28T18:10:01.454Z,11.91
2022-09-28T18:15:05.919Z,11.82
2022-09-28T18:20:12.281Z,11.84
2022-09-28T18:25:15.692Z,11.88
2022-09-28T18:30:19.105Z,11.85
2022-09-28T18:35:23.436Z,11.79
2022-09-28T18:40:27.214Z,11.75
2022-09-28T18:45:30.685Z,11.72
2022-09-28T18:50:34.712Z,11.71
2022-09-28T18:55:43.358Z,11.75
2022-09-28T19:00:46.962Z,11.83
2022-09-28T19:05:50.377Z,11.80
2022-09-28T19:10:53.796Z,11.73
2022-09-28T19:15:57.118Z,11.70
2022-09-28T19:21:07.234Z,11.66
2022-09-28T19:26:16.628Z,11.71
2022-09-28T19:31:22.709Z,11.75
2022-09-28T19:36:28.756Z,11.72
2022-09-28T19:41:43.752Z,11.67
2022-09-28T19:46:47.900Z,11.63
2022-09-28T19:52:12.171Z,11.57
2022-09-28T19:57:19.758Z,11.53
2022-09-28T20:02:23.169Z,11.57
2022-09-28T20:07:26.739Z,11.62
2022-09-28T20:12:30.154Z,11.59
2022-09-28T20:17:33.560Z,11.44
2022-09-28T20:22:37.300Z,11.34
2022-09-28T20:27:40.609Z,11.28
2022-09-28T20:32:48.726Z,11.16
2022-09-28T20:37:53.273Z,11.04
2022-09-28T20:42:56.577Z,10.98
2022-09-28T20:48:04.857Z,10.96
2022-09-28T20:53:08.235Z,10.92
2022-09-28T20:58:11.869Z,10.86
2022-09-28T21:03:15.146Z,10.81
2022-09-28T21:08:22.535Z,10.76
2022-09-28T21:13:27.095Z,10.76
2022-09-28T21:18:31.019Z,10.77
2022-09-28T21:23:35.584Z,10.78
2022-09-28T21:28:40.681Z,10.78
2022-09-28T21:33:44.130Z,10.82
2022-09-28T21:38:47.849Z,10.85
2022-09-28T21:43:51.736Z,10.90
2022-09-28T21:48:55.396Z,10.94
2022-09-28T21:53:58.809Z,10.91
2022-09-28T21:59:02.579Z,10.87
2022-09-28T22:04:06.151Z,10.82
2022-09-28T22:09:09.869Z,10.76
2022-09-28T22:14:13.284Z,10.71
2022-09-28T22:19:16.929Z,10.69
2022-09-28T22:24:20.403Z,10.70
2022-09-28T22:29:24.496Z,10.67
2022-09-28T22:34:32.266Z,10.65
2022-09-28T22:39:37.869Z,10.63
2022-09-28T22:44:41.345Z,10.62
2022-09-28T22:49:44.961Z,10.69
2022-09-28T22:54:51.451Z,10.77
2022-09-28T22:59:54.988Z,10.85
2022-09-28T23:04:58.269Z,10.91
2022-09-28T23:10:01.707Z,10.70
2022-09-28T23:15:06.904Z,10.59
2022-09-28T23:20:10.361Z,10.65
2022-09-28T23:25:14.572Z,10.66
2022-09-28T23:30:21.934Z,10.61
2022-09-28T23:35:25.248Z,10.48
2022-09-28T23:40:28.683Z,10.44
2022-09-28T23:45:32.142Z,10.44
2022-09-28T23:50:35.555Z,10.36
2022-09-28T23:55:38.972Z,10.36
